首页
METAR-TAF:

METAR-TAF

机场 :

瓦加杜古國際機場

瓦加杜古, 布吉納法索

纬度: 12-21N, 经度: 001-31W, 海拔: 316米

当前天气观测

该预报发布于47分钟前的11:00 UTC
风速4节,风向
温度 33°C
湿度 44%
气压 1013 hPa
能见度10公里或以上
1500米以下无云,无积雨云

METAR: DFFD 171100Z 08004KT CAVOK 33/19 Q1013 NOSIG

时间: 11:47 (11:47 UTC)

预报

该预报发布于47分钟前的11:00 UTC
预报有效从17日的 12点(UTC)到 18日的 18点(UTC)
风速8节,风向南转南东
能见度10公里或以上
1500米以下无云,无积雨云

TAF: DFFD 171100Z 1712/1818 16008KT CAVOK

超过4000个机场的气象观测和天气预报(METAR&TAF报告)。

可查询的气象台以黄色和红色小点在地图上表示。

将鼠标移到小点上方,可查看气象台名称。

然后点击查看天气观测和预报。

如需切换地图:点击带黑十字的绿色按钮放大地图;点击带横线的绿色按钮缩小地图;或者点击绿色箭头查看邻近地区的地图。


METAR-TAF: